WAOO/BDJ METAR and TAF weather

Enter ICAO airport designator
Station Type Date Time Source
WAOO METAR 2019/04/25 16:00 UTC NOAA

WAOO 251600Z AUTO 04003KT 9999 SCT070 BKN160 OVC210 26/25 Q1008


Station Type Date Time Source
WAOO Decoded METAR 2019/04/25 16:00 UTC NOAA

Station name not available
Apr 25, 2019 - 12:00 PM EDT / 2019.04.25 1600 UTC
Wind: from the NE (040 degrees) at 3 MPH (3 KT):0
Visibility: greater than 7 mile(s):0
Sky conditions: overcast
Temperature: 78 F (26 C)
Dew Point: 77 F (25 C)
Relative Humidity: 94%
Pressure (altimeter): 29.77 in. Hg (1008 hPa)
ob: WAOO 251600Z AUTO 04003KT 9999 SCT070 BKN160 OVC210 26/25 Q1008
cycle: 16

Station Type Date Time Source
WAOO TAF 2019/04/25 18:00 UTC NOAA

TAF WAOO 251700Z 2518/2618 05007KT 9999 SCT018
TEMPO 2606/2610 6000 TSRA FEW016CB

Example: see airport list